Time;durP1;ratioP1;P1;durP2;ratioP2;P2;SDS_P1;SDS_P2;PMS_P1;PMS_P2;Temp;Humidity;BMP_temperature;BMP_pressure;BME280_temperature;BME280_humidity;BME280_pressure;Samples;Min_cycle;Max_cycle;Signal;HPM_P1;HPM_P2
2022/06/29 00:00:38;;;;;;;4.80;4.40;;;27.30;46.50;;;;;;5942884;24;20359;-84
2022/06/29 00:03:13;;;;;;;3.97;3.67;;;27.30;46.50;;;;;;5962001;24;20390;-85
2022/06/29 00:06:17;;;;;;;4.30;4.00;;;27.30;46.50;;;;;;5971025;24;20393;-85
2022/06/29 00:16:07;;;;;;;;;;;;;;;;;;;;;
2022/06/29 00:19:02;;;;;;;4.73;4.33;;;27.30;46.70;;;;;;5943375;24;20391;-85
2022/06/29 00:21:39;;;;;;;5.13;4.73;;;27.30;46.70;;;;;;5944688;24;20379;-85
2022/06/29 00:37:52;;;;;;;4.73;4.33;;;27.30;46.80;;;;;;5862138;24;20505;-85
2022/06/29 00:40:31;;;;;;;4.20;3.87;;;27.20;46.80;;;;;;5839331;24;20389;-85
2022/06/29 00:43:29;;;;;;;4.33;3.93;;;27.20;46.80;;;;;;5839298;24;20394;-85
2022/06/29 00:52:59;;;;;;;4.73;4.33;;;27.30;46.90;;;;;;5889728;24;20372;-85
2022/06/29 01:03:00;;;;;;;5.50;5.00;;;27.30;46.90;;;;;;5862068;24;20427;-85
2022/06/29 01:22:47;;;;;;;4.90;4.50;;;27.20;46.80;;;;;;5836792;24;20417;-85
2022/06/29 01:25:31;;;;;;;4.77;4.03;;;27.20;47.00;;;;;;5851541;24;20416;-85
2022/06/29 01:28:12;;;;;;;4.20;3.80;;;27.20;47.00;;;;;;5868406;24;20390;-85
2022/06/29 01:31:23;;;;;;;5.90;5.30;;;27.20;47.10;;;;;;5864513;24;20389;-85
2022/06/29 01:41:37;;;;;;;;;;;;;;;;;;;;;
2022/06/29 01:48:26;;;;;;;4.73;4.30;;;27.20;47.10;;;;;;5943511;24;20975;-85
2022/06/29 01:59:10;;;;;;;5.77;4.93;;;27.30;47.10;;;;;;5944273;24;20409;-85
2022/06/29 02:06:05;;;;;;;;;;;;;;;;;;;;;
2022/06/29 04:15:18;;;;;;;5.57;5.10;;;27.20;47.60;;;;;;5750726;25;20405;-85
2022/06/29 04:21:27;;;;;;;6.33;5.73;;;27.20;47.80;;;;;;5782263;24;20412;-86
2022/06/29 04:24:29;;;;;;;6.40;5.90;;;27.20;47.70;;;;;;5760028;24;20399;-84
2022/06/29 04:27:05;;;;;;;5.93;5.47;;;27.30;47.80;;;;;;5761303;24;20499;-84
2022/06/29 10:28:24;;;;;;;10.80;6.10;;;27.70;50.40;;;;;;6082014;23;20346;-81
2022/06/29 11:44:59;;;;;;;;;;;;;;;;;;;;;
2022/06/29 13:53:14;;;;;;;;;;;;;;;;;;;;;
2022/06/29 14:33:54;;;;;;;4.90;4.37;;;28.10;51.80;;;;;;5837728;24;20421;-81
2022/06/29 15:00:49;;;;;;;6.10;4.17;;;28.10;51.70;;;;;;5775621;24;20372;-81
2022/06/29 15:03:51;;;;;;;5.10;4.60;;;28.10;51.80;;;;;;5782875;24;20393;-81
2022/06/29 15:07:00;;;;;;;5.37;4.70;;;28.10;51.60;;;;;;5781390;24;20459;-81
2022/06/29 15:16:51;;;;;;;;;;;;;;;;;;;;;
2022/06/29 15:38:54;;;;;;;4.80;4.23;;;28.10;51.60;;;;;;5891160;24;20519;-83
2022/06/29 15:41:50;;;;;;;5.40;4.90;;;28.10;51.60;;;;;;5891336;24;20393;-83
2022/06/29 15:44:23;;;;;;;4.00;3.60;;;28.10;51.60;;;;;;5863026;24;20478;-84
2022/06/29 16:22:33;;;;;;;;;;;;;;;;;;;;;
2022/06/29 16:25:01;;;;;;;5.27;4.73;;;28.10;52.10;;;;;;5751989;25;20440;-82
2022/06/29 16:27:32;;;;;;;5.30;4.10;;;28.10;52.30;;;;;;5764726;24;20902;-84
2022/06/29 16:30:22;;;;;;;6.93;5.00;;;28.10;52.40;;;;;;5829952;24;20383;-83
2022/06/29 16:32:48;;;;;;;5.87;5.27;;;28.20;52.50;;;;;;5807319;24;20387;-83
2022/06/29 16:35:24;;;;;;;;;;;;;;;;;;;;;
2022/06/29 16:38:11;;;;;;;;;;;;;;;;;;;;;
2022/06/29 16:47:27;;;;;;;6.60;4.90;;;28.20;52.40;;;;;;5942825;23;20396;-83
2022/06/29 16:49:56;;;;;;;5.10;4.23;;;28.20;52.40;;;;;;5998787;23;20399;-84
2022/06/29 16:53:08;;;;;;;6.17;5.20;;;28.20;52.50;;;;;;6000451;23;20444;-83
2022/06/29 16:56:12;;;;;;;5.13;4.23;;;28.20;52.50;;;;;;5999818;23;20384;-83
2022/06/29 16:58:46;;;;;;;5.40;4.40;;;28.20;52.60;;;;;;5890143;24;20396;-83
2022/06/29 17:11:41;;;;;;;6.07;4.40;;;28.30;52.70;;;;;;5912309;24;20683;-84
2022/06/29 17:34:33;;;;;;;5.23;4.30;;;28.20;52.90;;;;;;5858034;24;20405;-83
2022/06/29 17:37:38;;;;;;;5.30;4.80;;;28.20;52.90;;;;;;5857916;24;20441;-83
2022/06/29 17:40:34;;;;;;;5.40;4.60;;;28.20;52.80;;;;;;5857802;24;20494;-84
2022/06/29 17:43:00;;;;;;;5.17;4.50;;;28.20;52.90;;;;;;5858930;24;20427;-83
2022/06/29 17:52:13;;;;;;;4.87;4.40;;;28.20;52.90;;;;;;5832201;24;20905;-83
2022/06/29 17:54:39;;;;;;;4.43;4.03;;;28.20;52.90;;;;;;5832262;24;20390;-83
2022/06/29 17:57:05;;;;;;;5.50;4.30;;;28.20;52.90;;;;;;5845725;24;20931;-84
2022/06/29 17:59:31;;;;;;;5.97;4.23;;;28.20;52.90;;;;;;5885654;24;20163;-83
2022/06/29 18:01:57;;;;;;;4.37;3.93;;;28.20;53.00;;;;;;5907680;24;20499;-83
2022/06/29 18:04:23;;;;;;;4.60;4.10;;;28.20;53.00;;;;;;5886270;24;20166;-83
2022/06/29 18:06:51;;;;;;;6.37;3.97;;;28.20;53.20;;;;;;5907385;24;20170;-83
2022/06/29 18:09:17;;;;;;;4.40;3.90;;;28.20;53.10;;;;;;5885606;24;20389;-82
2022/06/29 18:11:43;;;;;;;4.47;4.03;;;28.20;53.10;;;;;;5885340;24;20537;-83
2022/06/29 18:14:09;;;;;;;5.00;4.47;;;28.20;53.10;;;;;;5885695;24;20475;-83
2022/06/29 18:16:38;;;;;;;6.27;4.10;;;28.20;53.30;;;;;;5884848;24;20237;-83
2022/06/29 18:19:06;;;;;;;3.97;3.67;;;28.20;53.30;;;;;;5932403;24;20218;-83
2022/06/29 18:21:32;;;;;;;5.10;4.20;;;28.20;53.30;;;;;;5972395;24;20396;-82
2022/06/29 18:23:58;;;;;;;5.60;4.40;;;28.20;53.50;;;;;;5996209;24;20374;-83
2022/06/29 18:26:27;;;;;;;3.90;3.33;;;28.30;53.60;;;;;;5995862;24;20397;-83
2022/06/29 18:28:59;;;;;;;4.07;3.73;;;28.20;53.30;;;;;;5994310;24;20381;-82
2022/06/29 18:31:28;;;;;;;5.73;4.73;;;28.20;53.50;;;;;;5995395;24;20456;-82
2022/06/29 18:33:54;;;;;;;5.10;3.70;;;28.20;53.60;;;;;;6000519;23;20397;-82
2022/06/29 18:36:20;;;;;;;4.23;3.83;;;28.20;53.70;;;;;;6022477;23;20451;-82
2022/06/29 18:38:46;;;;;;;6.00;3.73;;;28.20;53.50;;;;;;6023090;23;20761;-83
2022/06/29 18:41:13;;;;;;;4.73;4.00;;;28.20;53.60;;;;;;6023373;23;20227;-82
2022/06/29 18:43:39;;;;;;;7.27;4.10;;;28.20;53.40;;;;;;6023125;23;20380;-83
2022/06/29 18:46:05;;;;;;;4.40;4.00;;;28.30;53.40;;;;;;6022722;23;20404;-82
2022/06/29 18:48:31;;;;;;;4.63;3.93;;;28.30;53.40;;;;;;6023427;23;20223;-83
2022/06/29 18:50:57;;;;;;;4.47;4.03;;;28.30;53.50;;;;;;6023652;23;20249;-83
2022/06/29 18:53:23;;;;;;;6.63;4.00;;;28.30;53.30;;;;;;6023104;23;20396;-83
2022/06/29 18:55:49;;;;;;;5.33;4.27;;;28.30;54.00;;;;;;6022937;23;20400;-83
2022/06/29 18:58:15;;;;;;;5.40;4.33;;;28.30;53.40;;;;;;6023556;23;20179;-82
2022/06/29 19:00:41;;;;;;;4.27;3.87;;;28.30;53.40;;;;;;6023220;23;20483;-82
2022/06/29 19:03:07;;;;;;;8.50;4.47;;;28.30;53.40;;;;;;6023216;23;20857;-82
2022/06/29 19:05:35;;;;;;;4.40;4.00;;;28.30;53.40;;;;;;6022852;23;20155;-82
2022/06/29 19:08:02;;;;;;;8.10;4.47;;;28.30;53.40;;;;;;6022893;23;20164;-82
2022/06/29 19:10:28;;;;;;;5.60;4.20;;;28.30;53.40;;;;;;6022709;23;20466;-84
2022/06/29 19:12:53;;;;;;;4.93;3.93;;;28.30;53.30;;;;;;6023241;23;20389;-82
2022/06/29 19:15:19;;;;;;;5.00;4.40;;;28.30;53.40;;;;;;6022435;23;20159;-82
2022/06/29 19:17:45;;;;;;;6.20;4.40;;;28.30;53.30;;;;;;6022053;23;20436;-83
2022/06/29 19:20:11;;;;;;;4.60;4.00;;;28.30;53.30;;;;;;6022808;23;20245;-83
2022/06/29 19:22:38;;;;;;;5.13;4.63;;;28.30;53.40;;;;;;5998941;23;20389;-83
2022/06/29 19:25:04;;;;;;;5.20;4.23;;;28.30;53.30;;;;;;6022275;23;20180;-83
2022/06/29 19:27:30;;;;;;;5.10;3.90;;;28.30;53.40;;;;;;6022782;23;20388;-83
2022/06/29 19:29:56;;;;;;;4.07;3.67;;;28.30;53.50;;;;;;6022600;23;20396;-83
2022/06/29 19:32:22;;;;;;;5.43;3.47;;;28.20;53.30;;;;;;6021312;23;20381;-83
2022/06/29 19:34:48;;;;;;;4.57;4.10;;;28.30;53.40;;;;;;6023123;23;20178;-83
2022/06/29 19:37:14;;;;;;;5.10;4.27;;;28.20;53.30;;;;;;6023590;23;20456;-83
2022/06/29 19:39:40;;;;;;;4.23;3.90;;;28.30;53.50;;;;;;6023407;23;20392;-83
2022/06/29 19:42:06;;;;;;;4.47;3.77;;;28.20;53.30;;;;;;5999414;23;20159;-83
2022/06/29 19:44:35;;;;;;;4.43;4.03;;;28.20;53.30;;;;;;6023808;23;20376;-83
2022/06/29 19:47:01;;;;;;;6.40;3.70;;;28.30;53.40;;;;;;6022723;23;20171;-83
2022/06/29 19:49:26;;;;;;;4.40;3.97;;;28.20;53.30;;;;;;6023085;23;20385;-83
2022/06/29 19:51:52;;;;;;;5.00;4.37;;;28.30;53.30;;;;;;6023091;23;20392;-84
2022/06/29 19:54:18;;;;;;;5.40;4.03;;;28.30;53.30;;;;;;6023639;23;20170;-83
2022/06/29 19:56:44;;;;;;;4.60;4.07;;;28.30;53.20;;;;;;6023326;23;20175;-83
2022/06/29 19:59:10;;;;;;;4.73;4.23;;;28.30;53.20;;;;;;6022615;23;20184;-84
2022/06/29 20:01:36;;;;;;;4.87;4.10;;;28.30;53.40;;;;;;6023047;23;20156;-84
2022/06/29 20:04:02;;;;;;;5.57;4.40;;;28.30;53.30;;;;;;6023356;23;20457;-84
2022/06/29 20:06:28;;;;;;;4.40;4.00;;;28.30;53.30;;;;;;6000385;23;20518;-84
2022/06/29 20:08:57;;;;;;;4.70;4.20;;;28.30;53.40;;;;;;6007899;23;20388;-84
2022/06/29 20:11:23;;;;;;;5.87;4.60;;;28.30;53.40;;;;;;6115068;23;20600;-84
2022/06/29 20:13:49;;;;;;;4.77;4.30;;;28.30;53.30;;;;;;6114264;23;20392;-85
2022/06/29 20:16:16;;;;;;;5.00;4.50;;;28.20;53.30;;;;;;6114437;23;20257;-84
2022/06/29 20:18:44;;;;;;;4.80;4.30;;;28.20;53.40;;;;;;6114462;23;20648;-84
2022/06/29 20:21:10;;;;;;;6.10;4.57;;;28.30;53.30;;;;;;6114894;23;20389;-84
2022/06/29 20:23:37;;;;;;;7.53;6.10;;;28.30;53.30;;;;;;6141836;23;20372;-84
2022/06/29 20:26:03;;;;;;;5.10;4.33;;;28.20;53.30;;;;;;6143315;23;20400;-84
2022/06/29 20:28:32;;;;;;;6.33;4.10;;;28.30;53.40;;;;;;6116484;23;20381;-84
2022/06/29 20:31:01;;;;;;;4.70;4.30;;;28.30;53.40;;;;;;6117383;23;20388;-84
2022/06/29 20:33:27;;;;;;;5.87;4.30;;;28.30;53.30;;;;;;6117174;23;20389;-84
2022/06/29 20:35:53;;;;;;;5.00;4.50;;;28.20;53.30;;;;;;6117294;23;20462;-84
2022/06/29 20:38:19;;;;;;;4.70;4.30;;;28.30;53.60;;;;;;6117875;23;20392;-84
2022/06/29 20:40:46;;;;;;;6.50;4.60;;;28.20;53.40;;;;;;6117301;23;20377;-84
2022/06/29 20:45:20;;;;;;;5.87;4.30;;;28.30;53.30;;;;;;6116896;23;20432;-84
2022/06/29 20:45:58;;;;;;;5.43;4.33;;;28.30;53.50;;;;;;6143057;23;20379;-84
2022/06/29 20:48:26;;;;;;;4.33;4.03;;;28.30;53.30;;;;;;6142665;23;20369;-84
2022/06/29 20:50:51;;;;;;;5.67;5.07;;;28.30;53.30;;;;;;6142255;23;20361;-84
2022/06/29 20:53:17;;;;;;;5.27;4.87;;;28.30;53.30;;;;;;6116559;23;20399;-84
2022/06/29 20:55:43;;;;;;;5.20;4.50;;;28.30;53.30;;;;;;6117085;23;20376;-84
2022/06/29 20:58:09;;;;;;;6.33;4.00;;;28.20;53.30;;;;;;6117129;23;20232;-84
2022/06/29 21:00:35;;;;;;;4.40;4.00;;;28.30;53.30;;;;;;6117555;23;20160;-84
2022/06/29 21:03:01;;;;;;;5.33;4.73;;;28.20;53.30;;;;;;6116478;23;20190;-84
2022/06/29 21:05:26;;;;;;;3.80;3.50;;;28.20;53.20;;;;;;6117183;23;20156;-84
2022/06/29 21:07:52;;;;;;;4.70;4.30;;;28.30;53.30;;;;;;6142829;23;20172;-84
2022/06/29 21:10:18;;;;;;;4.83;4.20;;;28.20;53.40;;;;;;6115873;23;20168;-84
2022/06/29 21:12:47;;;;;;;5.40;4.57;;;28.20;53.30;;;;;;6116421;23;20164;-84
2022/06/29 21:15:13;;;;;;;6.17;4.80;;;28.30;53.60;;;;;;6115692;23;20161;-84
2022/06/29 21:17:40;;;;;;;5.37;4.87;;;28.30;53.30;;;;;;6117031;23;20444;-84
2022/06/29 21:20:07;;;;;;;5.33;4.83;;;28.20;53.20;;;;;;6115976;23;20153;-84
2022/06/29 21:22:33;;;;;;;4.63;4.23;;;28.30;53.50;;;;;;6116519;23;20385;-84
2022/06/29 21:24:59;;;;;;;6.50;4.50;;;28.30;53.30;;;;;;6142125;23;20401;-84
2022/06/29 21:27:27;;;;;;;4.67;4.27;;;28.20;53.30;;;;;;6142919;23;20153;-84
2022/06/29 21:29:52;;;;;;;5.77;4.40;;;28.30;53.30;;;;;;6117024;23;20682;-84
2022/06/29 21:32:18;;;;;;;5.60;4.80;;;28.20;53.30;;;;;;6115826;23;20381;-84
2022/06/29 21:34:44;;;;;;;5.30;4.70;;;28.20;53.50;;;;;;6110575;23;20174;-84
2022/06/29 21:37:19;;;;;;;4.73;4.33;;;28.30;53.50;;;;;;6112134;23;20545;-84
2022/06/29 21:39:45;;;;;;;5.03;4.57;;;28.20;53.30;;;;;;6111273;23;20180;-84
2022/06/29 21:42:11;;;;;;;4.70;4.17;;;28.20;53.20;;;;;;6111621;23;20382;-84
2022/06/29 21:44:36;;;;;;;6.63;6.03;;;28.20;53.30;;;;;;6110169;23;20397;-84
2022/06/29 21:47:03;;;;;;;4.63;4.27;;;28.20;53.40;;;;;;6110839;23;20158;-84
2022/06/29 21:52:13;;;;;;;4.87;4.47;;;28.20;53.10;;;;;;6112001;23;20736;-84
2022/06/29 21:54:39;;;;;;;5.90;5.07;;;28.20;53.20;;;;;;6111375;23;20416;-83
2022/06/29 21:57:05;;;;;;;5.20;4.80;;;28.20;53.20;;;;;;6111135;23;20426;-84
2022/06/29 21:59:42;;;;;;;5.40;4.90;;;28.20;53.30;;;;;;6112632;23;20232;-84
2022/06/29 22:02:09;;;;;;;5.27;4.77;;;28.20;53.20;;;;;;6110820;23;20390;-84
2022/06/29 22:04:34;;;;;;;5.07;4.57;;;28.20;53.30;;;;;;6112898;23;20141;-84
2022/06/29 22:07:00;;;;;;;5.40;4.70;;;28.20;53.30;;;;;;6110605;23;20449;-83
2022/06/29 22:09:26;;;;;;;4.77;4.37;;;28.20;53.20;;;;;;6111162;23;20158;-84
2022/06/29 22:11:52;;;;;;;4.90;4.40;;;28.20;53.30;;;;;;6110002;23;20213;-83
2022/06/29 22:14:17;;;;;;;4.63;4.23;;;28.20;53.30;;;;;;6112639;23;20150;-84
2022/06/29 22:16:43;;;;;;;5.60;5.00;;;28.20;53.30;;;;;;6110509;23;20182;-84
2022/06/29 22:19:09;;;;;;;5.70;5.20;;;28.20;53.20;;;;;;6110573;23;20181;-84
2022/06/29 22:21:35;;;;;;;5.50;4.70;;;28.20;53.20;;;;;;6110058;23;20185;-84
2022/06/29 22:24:01;;;;;;;5.30;4.80;;;28.20;53.20;;;;;;6110639;23;20157;-84
2022/06/29 22:26:26;;;;;;;7.20;5.23;;;28.20;53.30;;;;;;6111949;23;20150;-84
2022/06/29 22:28:52;;;;;;;5.90;5.40;;;28.20;53.50;;;;;;6111552;23;20150;-84
2022/06/29 22:31:18;;;;;;;6.77;6.07;;;28.20;53.40;;;;;;6111301;23;20188;-83
2022/06/29 22:33:44;;;;;;;7.07;6.33;;;28.20;53.70;;;;;;6110407;23;20169;-84
2022/06/29 22:36:09;;;;;;;6.10;5.60;;;28.20;53.90;;;;;;6110814;23;20181;-84
2022/06/29 22:38:35;;;;;;;6.00;5.50;;;28.20;54.00;;;;;;6110565;23;20169;-84
2022/06/29 22:41:01;;;;;;;7.17;6.07;;;28.30;53.70;;;;;;6110947;23;20232;-84
2022/06/29 22:43:27;;;;;;;6.90;6.10;;;28.20;53.60;;;;;;6112608;23;20149;-83
2022/06/29 22:45:53;;;;;;;8.30;5.00;;;28.20;53.40;;;;;;6111923;23;20182;-84
2022/06/29 22:48:18;;;;;;;6.90;6.10;;;28.20;53.40;;;;;;6110453;23;20165;-84
2022/06/29 22:50:44;;;;;;;6.93;5.80;;;28.20;53.60;;;;;;6110715;23;20161;-84
2022/06/29 22:53:10;;;;;;;7.47;5.93;;;28.20;54.00;;;;;;6112395;23;20150;-84
2022/06/29 22:55:36;;;;;;;6.60;6.00;;;28.20;54.10;;;;;;6112241;23;20145;-84
2022/06/29 22:58:02;;;;;;;7.67;5.63;;;28.20;53.50;;;;;;6110752;23;20184;-84
2022/06/29 23:00:27;;;;;;;6.13;5.63;;;28.20;53.60;;;;;;6110442;23;20225;-84
2022/06/29 23:02:53;;;;;;;6.40;5.80;;;28.20;53.80;;;;;;6111069;23;20154;-84
2022/06/29 23:05:19;;;;;;;8.60;6.07;;;28.20;53.70;;;;;;6111995;23;20146;-84
2022/06/29 23:07:45;;;;;;;6.13;5.63;;;28.20;53.50;;;;;;6112381;23;20592;-84
2022/06/29 23:12:29;;;;;;;7.60;5.67;;;28.20;53.60;;;;;;6111456;23;20177;-84
2022/06/29 23:12:58;;;;;;;7.13;6.43;;;28.20;53.60;;;;;;6111241;23;20240;-84
2022/06/29 23:15:23;;;;;;;7.03;6.13;;;28.20;54.40;;;;;;6111972;23;20362;-84
2022/06/29 23:17:49;;;;;;;6.83;6.23;;;28.20;53.80;;;;;;6110381;23;20177;-84
2022/06/29 23:20:17;;;;;;;6.83;6.20;;;28.20;53.50;;;;;;6110421;23;20162;-84
2022/06/29 23:22:43;;;;;;;6.37;5.87;;;28.20;53.50;;;;;;6110239;23;20538;-84
2022/06/29 23:25:09;;;;;;;7.00;6.30;;;28.20;53.50;;;;;;6110411;23;20382;-84
2022/06/29 23:27:35;;;;;;;7.50;6.80;;;28.20;53.60;;;;;;6110408;23;20161;-84
2022/06/29 23:30:01;;;;;;;10.07;6.90;;;28.20;53.90;;;;;;6111163;23;20162;-84
2022/06/29 23:32:27;;;;;;;6.93;6.33;;;28.20;54.00;;;;;;6111803;23;20378;-84
2022/06/29 23:34:52;;;;;;;7.70;6.93;;;28.20;54.00;;;;;;6109996;23;20180;-83
2022/06/29 23:37:18;;;;;;;7.47;6.77;;;28.20;54.30;;;;;;6110496;23;20181;-82
2022/06/29 23:39:44;;;;;;;12.60;7.23;;;28.20;54.20;;;;;;6110404;23;20224;-83
2022/06/29 23:42:10;;;;;;;7.50;6.80;;;28.20;54.40;;;;;;6109685;23;20153;-82
2022/06/29 23:44:35;;;;;;;7.00;6.40;;;28.20;54.20;;;;;;6111170;23;20149;-82
2022/06/29 23:47:02;;;;;;;7.23;6.33;;;28.20;53.80;;;;;;6110775;23;20149;-84
2022/06/29 23:49:28;;;;;;;7.50;6.30;;;28.20;53.80;;;;;;6109738;23;20161;-83
2022/06/29 23:51:54;;;;;;;7.40;6.20;;;28.20;54.30;;;;;;6110816;23;20416;-83
2022/06/29 23:54:20;;;;;;;7.03;6.33;;;28.20;53.70;;;;;;6109647;23;20386;-83
2022/06/29 23:56:46;;;;;;;7.43;6.63;;;28.20;53.60;;;;;;6111400;23;20417;-83
2022/06/29 23:59:12;;;;;;;6.93;6.20;;;28.20;53.70;;;;;;6112542;23;20389;-84
